createdAt,value
2018-09-18T00:01:12.996Z,73.50
2018-09-18T00:04:37.358Z,72.70
2018-09-18T00:08:01.812Z,73.00
2018-09-18T00:11:26.272Z,73.60
2018-09-18T00:14:50.716Z,73.10
2018-09-18T00:18:15.187Z,73.10
2018-09-18T00:21:39.584Z,72.90
2018-09-18T00:25:03.990Z,73.00
2018-09-18T00:28:28.509Z,73.20
2018-09-18T00:31:53.030Z,73.10
2018-09-18T00:35:17.531Z,73.00
2018-09-18T00:38:42.179Z,72.90
2018-09-18T00:42:06.608Z,72.80
2018-09-18T00:45:31.053Z,72.80
2018-09-18T00:48:55.530Z,72.90
2018-09-18T00:52:20.000Z,73.10
2018-09-18T00:55:44.452Z,74.10
2018-09-18T00:59:08.901Z,73.50
2018-09-18T01:02:33.372Z,73.80
2018-09-18T01:05:57.887Z,74.30
2018-09-18T01:09:22.377Z,74.80
2018-09-18T01:12:46.897Z,75.10
2018-09-18T01:16:11.319Z,75.30
2018-09-18T01:19:35.742Z,74.70
2018-09-18T01:23:00.158Z,74.50
2018-09-18T01:26:24.611Z,74.80
2018-09-18T01:29:49.024Z,75.00
2018-09-18T01:33:13.458Z,75.10
2018-09-18T01:36:37.944Z,75.10
2018-09-18T01:40:02.365Z,74.90
2018-09-18T01:43:26.818Z,75.20
2018-09-18T01:46:51.267Z,76.00
2018-09-18T01:50:15.706Z,76.00
2018-09-18T01:53:40.149Z,76.40
2018-09-18T01:57:04.607Z,76.60
2018-09-18T02:00:29.023Z,76.40
2018-09-18T02:03:53.466Z,76.50
2018-09-18T02:07:17.913Z,77.10
2018-09-18T02:10:42.382Z,77.30
2018-09-18T02:14:06.849Z,76.40
2018-09-18T02:17:31.296Z,76.30
2018-09-18T02:20:55.766Z,76.20
2018-09-18T02:24:20.234Z,76.20
2018-09-18T02:27:44.664Z,76.20
2018-09-18T02:31:09.054Z,76.50
2018-09-18T02:34:33.459Z,75.90
2018-09-18T02:37:57.899Z,76.30
2018-09-18T02:41:22.323Z,76.00
2018-09-18T02:44:46.751Z,76.50
2018-09-18T02:48:11.147Z,76.50
2018-09-18T02:51:35.573Z,75.80
2018-09-18T02:55:00.015Z,76.00
2018-09-18T02:58:24.501Z,76.00
2018-09-18T03:01:48.954Z,75.60
2018-09-18T03:05:13.351Z,75.00
2018-09-18T03:08:37.773Z,74.40
2018-09-18T03:12:02.301Z,73.70
2018-09-18T03:15:26.730Z,73.40
2018-09-18T03:18:51.143Z,73.10
2018-09-18T03:22:15.594Z,72.40
2018-09-18T03:25:39.999Z,72.30
2018-09-18T03:29:04.469Z,72.60
2018-09-18T03:32:28.912Z,72.20
2018-09-18T03:35:53.328Z,72.30
2018-09-18T03:39:17.728Z,72.20
2018-09-18T03:42:42.301Z,72.00
2018-09-18T03:46:06.761Z,71.80
2018-09-18T03:49:31.289Z,71.70
2018-09-18T03:52:55.740Z,71.70
2018-09-18T03:56:20.157Z,71.30
2018-09-18T03:59:44.606Z,71.30
2018-09-18T04:03:09.050Z,71.50
2018-09-18T04:06:33.465Z,71.40
2018-09-18T04:09:57.966Z,71.10
2018-09-18T04:13:22.428Z,71.10
2018-09-18T04:16:46.837Z,71.10
2018-09-18T04:20:11.288Z,71.20
2018-09-18T04:23:35.743Z,71.10
2018-09-18T04:27:00.607Z,71.20
2018-09-18T04:30:25.047Z,71.40
2018-09-18T04:33:49.466Z,71.40
2018-09-18T04:37:13.850Z,71.40
2018-09-18T04:40:38.528Z,71.50
2018-09-18T04:44:02.959Z,71.50
2018-09-18T04:47:27.354Z,71.50
2018-09-18T04:50:51.808Z,71.70
2018-09-18T04:54:51.222Z,71.70
2018-09-18T04:58:16.361Z,71.70
2018-09-18T05:01:40.788Z,72.10
2018-09-18T05:05:05.767Z,72.80
2018-09-18T05:08:30.208Z,73.20
2018-09-18T05:11:54.689Z,73.40
2018-09-18T05:15:19.201Z,73.40
2018-09-18T05:18:43.733Z,73.80
2018-09-18T05:22:08.199Z,73.60
2018-09-18T05:25:32.629Z,73.10
2018-09-18T05:28:57.066Z,72.90
2018-09-18T05:32:21.537Z,73.10
2018-09-18T05:35:45.965Z,73.00
2018-09-18T05:39:11.811Z,73.20
2018-09-18T05:42:36.259Z,73.60
2018-09-18T05:46:00.696Z,73.50
2018-09-18T05:49:27.270Z,73.10
2018-09-18T05:52:51.898Z,72.70
2018-09-18T05:56:16.345Z,72.50
2018-09-18T05:59:40.818Z,72.60
2018-09-18T06:03:05.313Z,72.70
2018-09-18T06:06:29.851Z,72.70
2018-09-18T06:09:54.384Z,72.80
2018-09-18T06:13:18.839Z,72.80
2018-09-18T06:16:43.263Z,72.60
2018-09-18T06:20:07.815Z,72.90
2018-09-18T06:23:32.277Z,72.70
2018-09-18T06:26:56.757Z,72.80
2018-09-18T06:30:21.234Z,73.10
2018-09-18T06:33:45.698Z,73.40
2018-09-18T06:37:10.169Z,72.60
2018-09-18T06:40:41.550Z,71.80
2018-09-18T06:44:06.240Z,71.90
2018-09-18T06:47:30.683Z,71.50
2018-09-18T06:50:55.142Z,71.50
2018-09-18T06:54:19.624Z,71.10
2018-09-18T06:57:44.057Z,70.30
2018-09-18T07:01:08.580Z,70.50
2018-09-18T07:04:33.018Z,70.00
2018-09-18T07:07:57.518Z,70.00
2018-09-18T07:11:22.010Z,70.10
2018-09-18T07:14:46.442Z,69.90
2018-09-18T07:18:10.989Z,69.60
2018-09-18T07:21:35.386Z,69.10
2018-09-18T07:25:06.494Z,69.10
2018-09-18T07:28:31.442Z,69.00
2018-09-18T07:31:55.903Z,69.00
2018-09-18T07:35:20.340Z,68.80
2018-09-18T07:38:44.961Z,68.60
2018-09-18T07:42:09.409Z,68.40
2018-09-18T07:45:33.890Z,68.60
2018-09-18T07:49:02.263Z,67.90
2018-09-18T07:52:26.711Z,67.50
2018-09-18T07:55:51.131Z,67.30
2018-09-18T07:59:15.556Z,67.10
2018-09-18T08:02:40.030Z,67.00
2018-09-18T08:06:04.528Z,66.70
2018-09-18T08:09:29.020Z,66.20
2018-09-18T08:12:53.503Z,65.60
2018-09-18T08:16:17.928Z,65.40
2018-09-18T08:19:42.541Z,65.50
2018-09-18T08:23:06.838Z,65.40
2018-09-18T08:26:31.288Z,65.40
2018-09-18T08:29:55.804Z,65.10
2018-09-18T08:33:20.265Z,64.90
2018-09-18T08:36:44.699Z,64.50
2018-09-18T08:40:09.348Z,64.60
2018-09-18T08:43:33.658Z,63.60
2018-09-18T08:46:58.148Z,63.30
2018-09-18T08:50:22.626Z,63.40
2018-09-18T08:53:47.129Z,62.90
2018-09-18T08:57:11.571Z,63.00
2018-09-18T09:00:36.025Z,62.90
2018-09-18T09:04:00.538Z,61.90
2018-09-18T09:07:24.975Z,61.70
2018-09-18T09:10:49.543Z,60.90
2018-09-18T09:14:14.178Z,61.30
2018-09-18T09:17:38.651Z,60.80
2018-09-18T09:21:03.157Z,60.40
2018-09-18T09:24:27.568Z,60.00
2018-09-18T09:27:52.088Z,59.60
2018-09-18T09:31:16.516Z,59.00
2018-09-18T09:34:40.936Z,58.10
2018-09-18T09:38:05.376Z,58.10
2018-09-18T09:41:29.801Z,58.10
2018-09-18T09:44:54.301Z,57.00
2018-09-18T09:48:18.783Z,55.60
2018-09-18T09:51:43.417Z,55.90
2018-09-18T09:55:07.760Z,54.80
2018-09-18T09:58:32.235Z,54.30
2018-09-18T10:02:01.855Z,54.60
2018-09-18T10:05:26.297Z,54.20
2018-09-18T10:08:50.752Z,53.80
2018-09-18T10:12:15.216Z,53.30
2018-09-18T10:15:39.701Z,52.80
2018-09-18T10:19:04.193Z,52.60
2018-09-18T10:22:28.636Z,52.30
2018-09-18T10:25:53.132Z,51.10
2018-09-18T10:29:17.554Z,51.40
2018-09-18T10:32:42.093Z,50.30
2018-09-18T10:36:06.495Z,50.20
2018-09-18T10:39:30.985Z,49.80
2018-09-18T10:42:55.441Z,48.30
2018-09-18T10:46:20.034Z,48.40
2018-09-18T10:49:44.485Z,50.20
2018-09-18T10:53:08.928Z,51.50
2018-09-18T10:56:33.362Z,51.60
2018-09-18T10:59:57.848Z,51.90
2018-09-18T11:03:22.325Z,51.00
2018-09-18T11:06:46.775Z,50.50
2018-09-18T11:10:11.303Z,50.80
2018-09-18T11:13:35.771Z,49.10
2018-09-18T11:17:00.206Z,47.00
2018-09-18T11:20:24.622Z,47.40
2018-09-18T11:23:49.141Z,46.50
2018-09-18T11:27:13.564Z,44.80
2018-09-18T11:30:38.087Z,44.60
2018-09-18T11:34:02.489Z,43.30
2018-09-18T11:37:26.906Z,41.00
2018-09-18T11:40:51.287Z,36.70
2018-09-18T11:44:15.749Z,33.50
2018-09-18T11:47:40.173Z,35.30
2018-09-18T11:51:04.652Z,34.90
2018-09-18T11:54:29.096Z,34.70
2018-09-18T11:57:53.575Z,35.50
2018-09-18T12:01:18.018Z,35.10
2018-09-18T12:04:42.525Z,33.30
2018-09-18T12:08:07.355Z,33.60
2018-09-18T12:11:32.024Z,30.80
2018-09-18T12:14:56.447Z,30.10
2018-09-18T12:18:20.906Z,30.40
2018-09-18T12:21:45.356Z,29.50
2018-09-18T12:25:09.795Z,30.00
2018-09-18T12:28:34.331Z,30.30
2018-09-18T12:31:58.786Z,29.70
2018-09-18T12:35:23.253Z,29.90
2018-09-18T12:38:47.751Z,29.20
2018-09-18T12:42:12.413Z,29.10
2018-09-18T12:45:36.702Z,28.50
2018-09-18T12:49:01.248Z,28.30
2018-09-18T12:52:25.672Z,28.30
2018-09-18T12:55:50.113Z,27.60
2018-09-18T12:59:14.632Z,27.50
2018-09-18T13:02:39.068Z,27.30
2018-09-18T13:06:03.573Z,27.60
2018-09-18T13:09:28.038Z,27.20
2018-09-18T13:12:52.490Z,26.80
2018-09-18T13:16:16.955Z,26.20
2018-09-18T13:19:41.384Z,26.10
2018-09-18T13:23:06.015Z,26.30
2018-09-18T13:26:30.442Z,26.70
2018-09-18T13:29:54.962Z,25.00
2018-09-18T13:33:19.400Z,25.10
2018-09-18T13:36:43.920Z,24.60
2018-09-18T13:40:08.403Z,23.90
2018-09-18T13:43:32.886Z,24.30
2018-09-18T13:46:57.545Z,25.30
2018-09-18T13:50:22.088Z,24.20
2018-09-18T13:53:46.439Z,23.70
2018-09-18T13:57:10.865Z,23.70
2018-09-18T14:00:35.753Z,23.60
2018-09-18T14:04:00.408Z,22.80
2018-09-18T14:07:24.874Z,22.10
2018-09-18T14:10:49.559Z,21.90
2018-09-18T14:14:14.118Z,21.70
2018-09-18T14:17:38.857Z,22.00
2018-09-18T14:21:03.569Z,22.60
2018-09-18T14:24:28.217Z,22.90
2018-09-18T14:27:53.688Z,22.80
2018-09-18T14:31:18.114Z,23.90
2018-09-18T14:34:42.547Z,23.60
2018-09-18T14:38:07.105Z,23.50
2018-09-18T14:41:31.516Z,23.30
2018-09-18T14:44:56.300Z,23.40
2018-09-18T14:48:20.962Z,23.30
2018-09-18T14:51:45.423Z,22.60
2018-09-18T14:55:10.005Z,22.70
2018-09-18T14:58:34.413Z,22.40
2018-09-18T15:01:58.865Z,22.50
2018-09-18T15:05:24.489Z,23.10
2018-09-18T15:08:49.007Z,22.60
2018-09-18T15:12:14.163Z,22.80
2018-09-18T15:15:38.903Z,22.70
2018-09-18T15:19:03.871Z,22.60
2018-09-18T15:22:28.626Z,22.50
2018-09-18T15:25:53.102Z,22.60
2018-09-18T15:29:23.778Z,22.50
2018-09-18T15:32:49.426Z,23.30
2018-09-18T15:36:13.823Z,23.10
2018-09-18T15:39:38.398Z,23.00
2018-09-18T15:43:02.846Z,23.10
2018-09-18T15:46:27.328Z,23.00
2018-09-18T15:53:25.849Z,23.20
2018-09-18T15:56:50.337Z,22.30
2018-09-18T16:00:14.858Z,23.20
2018-09-18T16:03:39.360Z,23.50
2018-09-18T16:07:03.932Z,23.10
2018-09-18T16:10:28.401Z,23.30
2018-09-18T16:13:52.934Z,23.90
2018-09-18T16:17:17.543Z,24.50
2018-09-18T16:20:42.043Z,24.20
2018-09-18T16:24:06.883Z,23.90
2018-09-18T16:27:31.381Z,23.80
2018-09-18T16:30:56.014Z,23.90
2018-09-18T16:34:20.582Z,24.30
2018-09-18T16:37:47.995Z,24.60
2018-09-18T16:41:12.583Z,24.60
2018-09-18T16:44:37.071Z,26.20
2018-09-18T16:48:01.679Z,28.80
2018-09-18T16:51:26.095Z,32.00
2018-09-18T16:54:50.669Z,33.40
2018-09-18T16:58:15.148Z,34.70
2018-09-18T17:01:39.903Z,35.70
2018-09-18T17:05:08.467Z,36.80
2018-09-18T17:08:33.040Z,37.20
2018-09-18T17:11:57.506Z,37.60
2018-09-18T17:15:21.960Z,38.70
2018-09-18T17:18:46.510Z,38.90
2018-09-18T17:22:11.086Z,39.50
2018-09-18T17:25:35.544Z,40.10
2018-09-18T17:29:00.142Z,40.50
2018-09-18T17:32:24.422Z,41.00
2018-09-18T17:35:48.917Z,40.30
2018-09-18T17:39:13.379Z,40.80
2018-09-18T17:42:37.854Z,41.70
2018-09-18T17:46:02.673Z,42.20
2018-09-18T17:49:27.119Z,43.10
2018-09-18T17:52:51.784Z,44.30
2018-09-18T17:56:16.479Z,44.50
2018-09-18T17:59:41.099Z,45.80
2018-09-18T18:03:05.605Z,46.00
2018-09-18T18:06:41.654Z,46.70
2018-09-18T18:10:08.797Z,49.40
2018-09-18T18:13:36.637Z,49.20
2018-09-18T18:17:01.202Z,48.90
2018-09-18T18:20:25.823Z,50.90
2018-09-18T18:23:50.186Z,50.20
2018-09-18T18:27:14.682Z,52.40
2018-09-18T18:30:39.184Z,53.80
2018-09-18T18:34:03.624Z,54.40
2018-09-18T18:37:28.199Z,54.10
2018-09-18T18:40:52.823Z,54.20
2018-09-18T18:44:17.287Z,55.30
2018-09-18T18:47:41.857Z,54.30
2018-09-18T18:51:06.343Z,55.10
2018-09-18T18:54:30.833Z,55.30
2018-09-18T18:57:55.422Z,56.40
2018-09-18T19:01:19.867Z,57.30
2018-09-18T19:04:44.359Z,57.90
2018-09-18T19:08:08.957Z,58.30
2018-09-18T19:11:33.410Z,58.90
2018-09-18T19:14:57.846Z,59.00
2018-09-18T19:18:22.351Z,60.20
2018-09-18T19:21:46.827Z,61.60
2018-09-18T19:25:11.321Z,62.20
2018-09-18T19:28:35.787Z,63.00
2018-09-18T19:32:00.278Z,63.70
2018-09-18T19:35:24.754Z,65.10
2018-09-18T19:38:53.166Z,65.50
2018-09-18T19:42:21.679Z,67.30
2018-09-18T19:45:46.329Z,68.00
2018-09-18T19:49:10.984Z,67.70
2018-09-18T19:52:36.111Z,68.10
2018-09-18T19:56:01.130Z,68.60
2018-09-18T19:59:25.761Z,69.20
2018-09-18T20:02:50.192Z,70.10
2018-09-18T20:06:18.707Z,71.10
2018-09-18T20:09:43.365Z,72.00
2018-09-18T20:13:07.879Z,72.90
2018-09-18T20:16:32.534Z,73.30
2018-09-18T20:19:57.260Z,74.00
2018-09-18T20:23:21.655Z,74.20
2018-09-18T20:26:46.212Z,75.20
2018-09-18T20:30:10.996Z,75.70
2018-09-18T20:33:35.451Z,76.30
2018-09-18T20:36:59.863Z,76.80
2018-09-18T20:40:24.341Z,77.30
2018-09-18T20:43:48.792Z,77.90
2018-09-18T20:47:13.234Z,78.00
2018-09-18T20:50:37.752Z,79.10
2018-09-18T20:54:02.342Z,79.30
2018-09-18T20:57:26.766Z,79.30
2018-09-18T21:00:51.614Z,79.10
2018-09-18T21:04:16.369Z,80.00
2018-09-18T21:07:40.988Z,80.10
2018-09-18T21:11:05.743Z,80.70
2018-09-18T21:14:30.523Z,81.70
2018-09-18T21:17:55.076Z,82.50
2018-09-18T21:21:19.833Z,82.60
2018-09-18T21:24:44.417Z,83.70
2018-09-18T21:28:09.528Z,83.30
2018-09-18T21:31:33.984Z,83.20
2018-09-18T21:34:58.540Z,83.80
2018-09-18T21:38:23.004Z,84.50
2018-09-18T21:41:47.460Z,85.40
2018-09-18T21:45:11.899Z,85.70
2018-09-18T21:48:36.389Z,85.60
2018-09-18T21:52:00.867Z,86.20
2018-09-18T21:55:25.281Z,86.70
2018-09-18T21:58:49.732Z,88.10
2018-09-18T22:02:14.186Z,89.50
2018-09-18T22:05:38.782Z,90.00
2018-09-18T22:09:03.360Z,89.90
2018-09-18T22:12:27.862Z,89.80
2018-09-18T22:15:52.292Z,89.70
2018-09-18T22:19:16.663Z,89.80
2018-09-18T22:22:41.113Z,89.60
2018-09-18T22:26:05.579Z,89.70
2018-09-18T22:29:30.115Z,89.60
2018-09-18T22:32:54.576Z,89.70
2018-09-18T22:36:19.021Z,90.00
2018-09-18T22:39:43.541Z,90.00
2018-09-18T22:43:08.011Z,90.20
2018-09-18T22:46:32.485Z,90.20
2018-09-18T22:49:56.984Z,90.50
2018-09-18T22:53:21.549Z,90.70
2018-09-18T22:56:45.969Z,90.80
2018-09-18T23:00:10.695Z,90.90
2018-09-18T23:03:35.138Z,91.10
2018-09-18T23:06:59.615Z,91.00
2018-09-18T23:10:24.058Z,91.20
2018-09-18T23:13:48.550Z,91.40
2018-09-18T23:17:13.005Z,91.50
2018-09-18T23:20:37.417Z,91.80
2018-09-18T23:24:01.946Z,91.90
2018-09-18T23:27:26.322Z,92.10
2018-09-18T23:30:50.834Z,92.40
2018-09-18T23:34:15.331Z,92.40
2018-09-18T23:37:39.858Z,92.60
2018-09-18T23:41:04.284Z,92.60
2018-09-18T23:44:29.009Z,92.80
2018-09-18T23:47:53.542Z,92.90
2018-09-18T23:51:18.003Z,92.90
2018-09-18T23:54:42.460Z,93.20
2018-09-18T23:58:06.895Z,93.10
